createdAt,value
2018-08-09T00:03:12.955Z,12.60
2018-08-09T00:08:16.309Z,11.93
2018-08-09T00:13:19.683Z,11.90
2018-08-09T00:18:23.417Z,15.70
2018-08-09T00:23:27.226Z,10.47
2018-08-09T00:28:30.541Z,12.03
2018-08-09T00:33:34.349Z,11.97
2018-08-09T00:38:37.630Z,11.00
2018-08-09T00:43:40.865Z,13.43
2018-08-09T00:48:44.214Z,18.43
2018-08-09T00:53:47.437Z,18.70
2018-08-09T00:58:50.685Z,14.60
2018-08-09T01:03:54.532Z,11.50
2018-08-09T01:09:03.406Z,11.93
2018-08-09T01:14:07.575Z,11.50
2018-08-09T01:19:10.764Z,13.70
2018-08-09T01:24:14.057Z,13.90
2018-08-09T01:29:17.456Z,12.63
2018-08-09T01:34:20.781Z,15.63
2018-08-09T01:39:24.294Z,12.80
2018-08-09T01:44:27.612Z,16.33
2018-08-09T01:49:30.859Z,10.97
2018-08-09T01:54:34.337Z,19.10
2018-08-09T01:59:37.618Z,20.30
2018-08-09T02:04:40.858Z,10.10
2018-08-09T02:09:44.234Z,13.33
2018-08-09T02:14:47.494Z,8.83
2018-08-09T02:19:50.828Z,10.83
2018-08-09T02:24:54.144Z,13.50
2018-08-09T02:29:57.370Z,12.37
2018-08-09T02:35:00.775Z,17.90
2018-08-09T02:40:04.670Z,11.57
2018-08-09T02:45:07.926Z,15.23
2018-08-09T02:50:11.174Z,18.87
2018-08-09T02:55:14.876Z,10.00
2018-08-09T03:00:18.105Z,14.77
2018-08-09T03:05:21.497Z,13.20
2018-08-09T03:10:24.715Z,8.53
2018-08-09T03:15:27.956Z,11.93
2018-08-09T03:20:31.269Z,9.73
2018-08-09T03:25:34.496Z,8.50
2018-08-09T03:30:37.776Z,9.53
2018-08-09T03:35:41.023Z,14.63
2018-08-09T03:40:44.542Z,10.23
2018-08-09T03:45:47.761Z,10.87
2018-08-09T03:50:51.870Z,11.33
2018-08-09T03:55:55.486Z,9.00
2018-08-09T04:00:58.887Z,12.40
2018-08-09T04:06:02.288Z,6.40
2018-08-09T04:11:05.947Z,6.93
2018-08-09T04:16:09.246Z,7.50
2018-08-09T04:21:12.680Z,8.30
2018-08-09T04:26:16.736Z,8.57
2018-08-09T04:31:20.066Z,9.60
2018-08-09T04:36:23.619Z,9.13
2018-08-09T04:41:26.859Z,9.90
2018-08-09T04:46:30.113Z,19.23
2018-08-09T04:51:33.394Z,11.23
2018-08-09T04:56:39.577Z,13.70
2018-08-09T05:01:42.846Z,11.53
2018-08-09T05:06:46.678Z,7.33
2018-08-09T05:11:49.869Z,8.33
2018-08-09T05:16:53.371Z,8.93
2018-08-09T05:21:56.888Z,7.10
2018-08-09T05:27:00.422Z,15.93
2018-08-09T05:32:03.728Z,9.77
2018-08-09T05:37:07.677Z,11.33
2018-08-09T05:42:10.988Z,9.73
2018-08-09T05:47:14.337Z,8.50
2018-08-09T05:52:17.666Z,8.47
2018-08-09T05:57:20.896Z,8.00
2018-08-09T06:02:24.311Z,10.10
2018-08-09T06:07:27.605Z,7.90
2018-08-09T06:12:31.564Z,7.53
2018-08-09T06:17:34.824Z,6.83
2018-08-09T06:22:38.117Z,7.33
2018-08-09T06:27:41.466Z,10.83
2018-08-09T06:32:45.046Z,7.80
2018-08-09T06:37:48.435Z,5.37
2018-08-09T06:42:51.709Z,6.63
2018-08-09T06:47:55.288Z,9.90
2018-08-09T06:52:58.844Z,8.90
2018-08-09T06:58:02.239Z,7.33
2018-08-09T07:03:05.756Z,6.83
2018-08-09T07:08:10.074Z,7.87
2018-08-09T07:13:13.501Z,8.80
2018-08-09T07:18:16.825Z,9.43
2018-08-09T07:23:20.086Z,6.90
2018-08-09T07:28:23.342Z,5.83
2018-08-09T07:33:26.731Z,6.27
2018-08-09T07:38:30.031Z,7.57
2018-08-09T07:43:34.535Z,6.07
2018-08-09T07:48:37.967Z,5.30
2018-08-09T07:53:41.898Z,6.60
2018-08-09T07:58:45.353Z,8.93
2018-08-09T08:03:49.016Z,5.87
2018-08-09T08:08:52.538Z,7.53
2018-08-09T08:13:56.133Z,6.63
2018-08-09T08:18:59.370Z,5.70
2018-08-09T08:24:03.522Z,6.53
2018-08-09T08:29:06.972Z,6.60
2018-08-09T08:34:10.323Z,6.97
2018-08-09T08:39:13.713Z,7.40
2018-08-09T08:44:17.245Z,11.50
2018-08-09T08:49:21.618Z,8.40
2018-08-09T08:54:24.935Z,10.37
2018-08-09T08:59:28.328Z,11.67
2018-08-09T09:04:32.195Z,18.70
2018-08-09T09:09:35.715Z,12.20
2018-08-09T09:14:39.106Z,15.03
2018-08-09T09:19:42.550Z,12.07
2018-08-09T09:24:46.586Z,12.00
2018-08-09T09:29:49.865Z,17.17
2018-08-09T09:34:53.162Z,10.10
2018-08-09T09:39:56.695Z,9.00
2018-08-09T09:45:00.330Z,12.03
2018-08-09T09:50:03.942Z,9.60
2018-08-09T09:55:07.860Z,10.93
2018-08-09T10:00:16.465Z,16.10
2018-08-09T10:05:19.743Z,7.73
2018-08-09T10:10:24.040Z,10.97
2018-08-09T10:15:27.497Z,11.93
2018-08-09T10:20:30.826Z,7.70
2018-08-09T10:25:34.527Z,12.20
2018-08-09T10:30:38.300Z,7.40
2018-08-09T10:35:41.873Z,8.63
2018-08-09T10:40:45.397Z,10.50
2018-08-09T10:45:49.264Z,9.37
2018-08-09T10:50:53.199Z,7.97
2018-08-09T10:55:56.757Z,12.40
2018-08-09T11:01:00.477Z,11.27
2018-08-09T11:06:03.738Z,6.50
2018-08-09T11:11:12.938Z,7.10
2018-08-09T11:16:16.410Z,6.10
2018-08-09T11:21:20.325Z,9.73
2018-08-09T11:26:24.652Z,5.40
2018-08-09T11:31:28.211Z,7.73
2018-08-09T11:36:31.505Z,7.23
2018-08-09T11:41:34.717Z,9.00
2018-08-09T11:46:38.029Z,8.40
2018-08-09T11:51:41.588Z,6.73
2018-08-09T11:56:45.249Z,6.47
2018-08-09T12:01:48.904Z,9.73
2018-08-09T12:06:52.349Z,9.30
2018-08-09T12:11:55.610Z,8.20
2018-08-09T12:16:58.970Z,8.47
2018-08-09T12:22:02.724Z,9.43
2018-08-09T12:27:06.093Z,6.70
2018-08-09T12:32:09.576Z,9.60
2018-08-09T12:37:12.913Z,8.63
2018-08-09T12:42:16.468Z,8.10
2018-08-09T12:47:19.789Z,8.10
2018-08-09T12:52:24.303Z,6.40
2018-08-09T12:57:27.844Z,6.43
2018-08-09T13:02:33.033Z,9.00
2018-08-09T13:07:36.515Z,12.63
2018-08-09T13:12:39.749Z,13.70
2018-08-09T13:17:44.100Z,10.23
2018-08-09T13:22:48.872Z,11.37
2018-08-09T13:27:52.270Z,10.80
2018-08-09T13:32:55.628Z,10.93
2018-08-09T13:37:59.160Z,7.50
2018-08-09T13:43:02.664Z,6.90
2018-08-09T13:48:06.791Z,7.87
2018-08-09T13:53:10.302Z,5.80
2018-08-09T13:58:13.824Z,6.90
2018-08-09T14:03:17.354Z,9.67
2018-08-09T14:08:21.517Z,10.40
2018-08-09T14:13:25.209Z,7.63
2018-08-09T14:18:28.917Z,6.80
2018-08-09T14:23:33.479Z,5.60
2018-08-09T14:28:37.922Z,8.30
2018-08-09T14:33:41.962Z,8.73
2018-08-09T14:44:24.453Z,6.17
2018-08-09T14:49:27.839Z,8.13
2018-08-09T14:54:31.180Z,8.60
2018-08-09T14:59:34.860Z,8.60
2018-08-09T15:04:38.641Z,7.27
2018-08-09T15:09:43.505Z,8.47
2018-08-09T15:14:47.004Z,7.17
2018-08-09T15:19:50.954Z,13.93
2018-08-09T15:24:54.296Z,6.70
2018-08-09T15:29:57.632Z,9.93
2018-08-09T15:54:55.357Z,8.27
2018-08-09T15:59:59.818Z,11.37
2018-08-09T16:05:04.036Z,10.80
2018-08-09T16:10:10.459Z,10.60
2018-08-09T16:15:16.730Z,7.33
2018-08-09T16:20:20.035Z,11.00
2018-08-09T16:25:30.453Z,8.90
2018-08-09T16:30:33.775Z,9.77
2018-08-09T16:35:37.520Z,8.13
2018-08-09T16:40:41.328Z,7.40
2018-08-09T16:45:44.857Z,10.47
2018-08-09T16:50:48.750Z,12.00
2018-08-09T16:55:52.085Z,15.33
2018-08-09T17:00:55.744Z,15.90
2018-08-09T17:05:59.504Z,12.67
2018-08-09T17:11:03.222Z,16.27
2018-08-09T17:16:06.643Z,20.60
2018-08-09T17:21:09.944Z,13.30
2018-08-09T17:26:13.394Z,22.70
2018-08-09T17:31:17.299Z,19.50
2018-08-09T17:36:21.013Z,12.17
2018-08-09T17:41:24.911Z,17.87
2018-08-09T17:46:29.183Z,11.70
2018-08-09T17:51:32.790Z,14.90
2018-08-09T17:56:36.428Z,18.13
2018-08-09T18:01:39.814Z,14.03
2018-08-09T18:06:43.224Z,12.73
2018-08-09T18:11:47.181Z,15.13
2018-08-09T18:16:51.208Z,11.07
2018-08-09T18:21:54.933Z,15.03
2018-08-09T18:26:58.491Z,10.80
2018-08-09T18:32:02.133Z,16.70
2018-08-09T18:37:06.124Z,14.10
2018-08-09T18:42:09.634Z,15.80
2018-08-09T18:47:13.040Z,27.33
2018-08-09T18:52:16.769Z,16.00
2018-08-09T18:57:20.025Z,17.87
2018-08-09T19:02:23.485Z,15.10
2018-08-09T19:07:27.358Z,23.53
2018-08-09T19:12:30.732Z,20.27
2018-08-09T19:17:34.396Z,20.57
2018-08-09T19:22:38.094Z,21.53
2018-08-09T19:27:42.188Z,21.77
2018-08-09T19:32:46.526Z,18.00
2018-08-09T19:37:50.004Z,21.53
2018-08-09T19:42:53.464Z,13.03
2018-08-09T19:47:56.916Z,20.30
2018-08-09T19:53:00.807Z,29.83
2018-08-09T19:58:04.495Z,35.00
2018-08-09T20:03:08.457Z,26.53
2018-08-09T20:08:12.094Z,23.93
2018-08-09T20:13:15.308Z,20.77
2018-08-09T20:18:19.545Z,17.00
2018-08-09T20:23:23.705Z,18.77
2018-08-09T20:28:27.408Z,16.70
2018-08-09T20:33:33.454Z,17.93
2018-08-09T20:38:37.413Z,16.17
2018-08-09T20:43:40.957Z,12.60
2018-08-09T20:48:45.250Z,14.93
2018-08-09T20:53:49.696Z,11.70
2018-08-09T20:58:55.660Z,12.40
2018-08-09T21:03:59.139Z,12.63
2018-08-09T21:09:02.796Z,12.87
2018-08-09T21:14:06.681Z,13.50
2018-08-09T21:19:10.912Z,14.83
2018-08-09T21:24:14.879Z,13.37
2018-08-09T21:29:20.024Z,10.50
2018-08-09T21:34:23.996Z,15.27
2018-08-09T21:39:28.152Z,10.60
2018-08-09T21:44:32.666Z,12.77
2018-08-09T21:49:37.726Z,11.47
2018-08-09T21:54:41.739Z,12.90
2018-08-09T21:59:47.289Z,13.43
2018-08-09T22:04:56.715Z,12.30
2018-08-09T22:10:05.994Z,12.20
2018-08-09T22:15:14.877Z,14.93
2018-08-09T22:20:23.964Z,14.43
2018-08-09T22:25:27.630Z,11.77
2018-08-09T22:30:31.508Z,10.60
2018-08-09T22:35:35.813Z,13.37
2018-08-09T22:40:39.325Z,16.87
2018-08-09T22:45:42.786Z,12.53
2018-08-09T22:50:46.974Z,11.03
2018-08-09T22:55:51.163Z,12.03
2018-08-09T23:00:54.674Z,14.93
2018-08-09T23:05:57.960Z,13.80
2018-08-09T23:11:01.429Z,13.90
2018-08-09T23:16:05.356Z,10.10
2018-08-09T23:21:08.759Z,12.63
2018-08-09T23:26:12.015Z,11.30
2018-08-09T23:31:15.313Z,14.43
2018-08-09T23:36:18.569Z,10.50
2018-08-09T23:41:21.855Z,9.20
2018-08-09T23:46:25.122Z,8.27
2018-08-09T23:51:28.422Z,8.90
2018-08-09T23:56:31.919Z,12.53
